createdAt,value
2023-11-18T00:03:57.026Z,85.29
2023-11-18T00:08:59.168Z,85.53
2023-11-18T00:14:01.422Z,85.55
2023-11-18T00:19:06.168Z,85.73
2023-11-18T00:24:08.893Z,85.83
2023-11-18T00:29:11.701Z,85.86
2023-11-18T00:34:13.649Z,85.65
2023-11-18T00:39:15.604Z,85.85
2023-11-18T00:44:18.764Z,86.02
2023-11-18T00:49:21.501Z,85.97
2023-11-18T00:54:24.562Z,86.00
2023-11-18T00:59:27.688Z,86.14
2023-11-18T01:04:30.070Z,86.23
2023-11-18T01:09:37.608Z,86.20
2023-11-18T01:14:40.771Z,86.15
2023-11-18T01:19:43.257Z,86.14
2023-11-18T01:24:46.954Z,86.20
2023-11-18T01:29:49.763Z,86.20
2023-11-18T01:34:52.047Z,86.25
2023-11-18T01:39:54.097Z,86.35
2023-11-18T01:44:57.135Z,86.39
2023-11-18T01:50:00.957Z,86.55
2023-11-18T01:55:07.366Z,86.59
2023-11-18T02:00:12.032Z,86.69
2023-11-18T02:05:14.272Z,86.93
2023-11-18T02:10:18.313Z,86.93
2023-11-18T02:15:22.128Z,86.88
2023-11-18T02:20:25.486Z,86.91
2023-11-18T02:25:29.591Z,86.99
2023-11-18T02:30:31.697Z,87.02
2023-11-18T02:35:43.919Z,87.04
2023-11-18T02:40:48.886Z,86.99
2023-11-18T02:45:52.074Z,87.01
2023-11-18T02:50:55.165Z,87.21
2023-11-18T02:56:03.230Z,87.40
2023-11-18T03:01:05.670Z,87.49
2023-11-18T03:06:07.889Z,87.45
2023-11-18T03:11:10.043Z,87.68
2023-11-18T03:16:13.609Z,87.78
2023-11-18T03:21:16.020Z,87.88
2023-11-18T03:26:18.049Z,87.96
2023-11-18T03:31:20.642Z,87.94
2023-11-18T03:36:22.685Z,88.47
2023-11-18T03:41:24.618Z,88.59
2023-11-18T03:46:26.619Z,88.61
2023-11-18T03:51:29.541Z,88.92
2023-11-18T03:56:31.548Z,89.00
2023-11-18T04:01:33.653Z,89.26
2023-11-18T04:06:35.997Z,89.95
2023-11-18T04:11:39.297Z,90.01
2023-11-18T04:16:41.372Z,90.19
2023-11-18T04:21:45.821Z,89.65
2023-11-18T04:26:48.838Z,89.86
2023-11-18T04:31:51.254Z,89.76
2023-11-18T04:36:53.284Z,90.05
2023-11-18T04:41:57.095Z,89.89
2023-11-18T04:46:59.276Z,89.92
2023-11-18T04:52:01.593Z,89.96
2023-11-18T04:57:04.172Z,90.27
2023-11-18T05:02:07.150Z,90.09
2023-11-18T05:07:09.257Z,90.14
2023-11-18T05:12:11.341Z,90.23
2023-11-18T05:17:13.386Z,90.17
2023-11-18T05:22:15.451Z,90.12
2023-11-18T05:27:18.618Z,90.10
2023-11-18T05:32:23.905Z,90.14
2023-11-18T05:37:26.067Z,89.96
2023-11-18T05:42:30.716Z,89.98
2023-11-18T05:47:37.700Z,89.89
2023-11-18T05:52:39.866Z,89.62
2023-11-18T05:57:42.783Z,89.60
2023-11-18T06:02:44.965Z,89.60
2023-11-18T06:07:48.140Z,89.61
2023-11-18T06:12:50.175Z,89.25
2023-11-18T06:17:52.313Z,89.03
2023-11-18T06:22:55.015Z,89.03
2023-11-18T06:27:58.893Z,89.08
2023-11-18T06:33:01.069Z,88.87
2023-11-18T06:38:03.619Z,88.71
2023-11-18T06:43:11.607Z,88.64
2023-11-18T06:48:15.602Z,88.70
2023-11-18T06:53:17.708Z,88.56
2023-11-18T06:58:19.673Z,88.37
2023-11-18T07:03:22.641Z,88.32
2023-11-18T07:08:25.243Z,88.15
2023-11-18T07:13:27.621Z,88.07
2023-11-18T07:18:35.008Z,87.98
2023-11-18T07:23:37.958Z,88.10
2023-11-18T07:28:40.602Z,87.94
2023-11-18T07:33:45.387Z,86.01
2023-11-18T07:38:53.147Z,82.54
2023-11-18T07:43:57.079Z,80.88
2023-11-18T07:49:02.279Z,81.14
2023-11-18T07:54:04.789Z,80.42
2023-11-18T07:59:09.075Z,76.08
2023-11-18T08:04:11.238Z,68.87
2023-11-18T08:09:18.238Z,60.30
2023-11-18T08:14:20.452Z,60.90
2023-11-18T08:19:23.856Z,54.11
2023-11-18T08:24:25.990Z,56.06
2023-11-18T08:29:32.076Z,50.93
2023-11-18T08:34:36.457Z,50.79
2023-11-18T08:39:38.429Z,51.64
2023-11-18T08:44:40.795Z,57.39
2023-11-18T08:49:47.044Z,56.52
2023-11-18T08:55:07.787Z,59.32
2023-11-18T09:00:30.775Z,63.88
2023-11-18T09:05:36.600Z,65.63
2023-11-18T09:10:39.109Z,69.18
2023-11-18T09:15:41.142Z,71.71
2023-11-18T09:20:43.328Z,73.36
2023-11-18T09:25:47.932Z,75.02
2023-11-18T09:30:54.898Z,76.09
2023-11-18T09:36:00.041Z,76.25
2023-11-18T09:41:04.608Z,76.63
2023-11-18T09:46:14.272Z,76.97
2023-11-18T09:51:24.468Z,76.91
2023-11-18T09:57:09.272Z,77.11
2023-11-18T10:02:12.022Z,76.91
2023-11-18T10:07:17.503Z,77.29
2023-11-18T10:12:24.624Z,76.95
2023-11-18T10:17:28.237Z,76.47
2023-11-18T10:22:33.131Z,76.49
2023-11-18T10:27:35.196Z,74.71
2023-11-18T10:32:37.898Z,74.52
2023-11-18T10:37:43.900Z,74.90
2023-11-18T10:42:49.805Z,75.19
2023-11-18T10:47:53.389Z,74.47
2023-11-18T10:52:55.657Z,74.01
2023-11-18T10:57:59.319Z,73.42
2023-11-18T11:03:05.008Z,73.43
2023-11-18T11:08:08.814Z,72.02
2023-11-18T11:13:12.124Z,72.43
2023-11-18T11:18:24.042Z,73.15
2023-11-18T11:23:45.474Z,70.34
2023-11-18T11:29:10.721Z,68.33
2023-11-18T11:34:21.364Z,69.35
2023-11-18T11:39:26.341Z,67.80
2023-11-18T11:44:32.925Z,67.78
2023-11-18T11:49:45.507Z,65.71
2023-11-18T11:55:12.915Z,65.72
2023-11-18T12:00:17.691Z,66.72
2023-11-18T12:05:28.261Z,66.30
2023-11-18T12:10:32.729Z,64.48
2023-11-18T12:15:57.756Z,63.18
2023-11-18T12:21:03.297Z,62.28
2023-11-18T12:26:45.185Z,64.74
2023-11-18T12:31:47.510Z,68.75
2023-11-18T12:37:53.938Z,70.93
2023-11-18T12:43:01.197Z,68.47
2023-11-18T12:48:12.778Z,69.49
2023-11-18T12:53:27.980Z,69.73
2023-11-18T12:58:34.915Z,69.59
2023-11-18T13:03:38.149Z,64.74
2023-11-18T13:08:47.106Z,67.05
2023-11-18T13:13:50.572Z,69.43
2023-11-18T13:18:56.890Z,69.04
2023-11-18T13:23:59.038Z,68.13
2023-11-18T13:29:03.229Z,67.98
2023-11-18T13:34:07.837Z,68.35
2023-11-18T13:39:17.765Z,67.63
2023-11-18T13:44:36.561Z,67.16
2023-11-18T13:49:42.963Z,68.98
2023-11-18T13:54:48.536Z,68.40
2023-11-18T13:59:51.767Z,66.66
2023-11-18T14:04:56.371Z,68.95
2023-11-18T14:10:00.584Z,67.23
2023-11-18T14:15:04.468Z,67.79
2023-11-18T14:20:13.334Z,69.80
2023-11-18T14:25:16.110Z,70.20
2023-11-18T14:30:18.357Z,69.66
2023-11-18T14:35:21.424Z,69.33
2023-11-18T14:40:26.584Z,70.03
2023-11-18T14:45:28.648Z,70.30
2023-11-18T14:50:32.571Z,70.70
2023-11-18T14:55:35.062Z,70.61
2023-11-18T15:00:37.150Z,71.26
2023-11-18T15:05:39.230Z,70.45
2023-11-18T15:10:43.458Z,69.97
2023-11-18T15:15:48.945Z,70.09
2023-11-18T15:20:52.826Z,70.59
2023-11-18T15:25:55.456Z,70.14
2023-11-18T15:30:57.571Z,70.50
2023-11-18T15:35:59.711Z,71.24
2023-11-18T15:41:01.981Z,71.34
2023-11-18T15:46:07.337Z,71.49
2023-11-18T15:51:09.473Z,71.51
2023-11-18T15:56:11.945Z,72.37
2023-11-18T16:01:14.843Z,72.98
2023-11-18T16:06:18.569Z,73.39
2023-11-18T16:11:20.743Z,73.75
2023-11-18T16:16:26.053Z,73.97
2023-11-18T16:21:28.745Z,74.29
2023-11-18T16:26:30.966Z,74.67
2023-11-18T16:31:38.836Z,75.07
2023-11-18T16:36:43.442Z,75.03
2023-11-18T16:41:46.410Z,75.22
2023-11-18T16:46:50.955Z,75.43
2023-11-18T16:51:59.222Z,75.70
2023-11-18T16:57:03.006Z,76.10
2023-11-18T17:02:06.709Z,76.20
2023-11-18T17:07:10.872Z,76.21
2023-11-18T17:12:13.145Z,76.37
2023-11-18T17:17:15.549Z,76.56
2023-11-18T17:22:17.733Z,76.93
2023-11-18T17:27:19.790Z,76.94
2023-11-18T17:32:22.051Z,77.08
2023-11-18T17:37:24.444Z,77.28
2023-11-18T17:42:26.596Z,77.44
2023-11-18T17:47:29.050Z,77.82
2023-11-18T17:52:32.658Z,77.95
2023-11-18T17:57:36.338Z,77.99
2023-11-18T18:02:40.594Z,78.60
2023-11-18T18:07:43.110Z,78.39
2023-11-18T18:12:47.533Z,78.45
2023-11-18T18:17:50.253Z,78.57
2023-11-18T18:22:52.598Z,79.38
2023-11-18T18:27:54.981Z,79.19
2023-11-18T18:32:57.028Z,79.37
2023-11-18T18:37:59.560Z,79.79
2023-11-18T18:43:01.693Z,79.68
2023-11-18T18:48:04.232Z,80.27
2023-11-18T18:53:08.052Z,80.26
2023-11-18T18:58:10.353Z,80.54
2023-11-18T19:03:12.919Z,79.93
2023-11-18T19:08:15.390Z,79.93
2023-11-18T19:13:17.517Z,80.43
2023-11-18T19:18:21.687Z,80.33
2023-11-18T19:23:24.081Z,80.48
2023-11-18T19:28:26.244Z,80.69
2023-11-18T19:33:28.450Z,80.39
2023-11-18T19:38:30.962Z,81.08
2023-11-18T19:43:34.313Z,80.85
2023-11-18T19:48:37.150Z,80.32
2023-11-18T19:53:40.493Z,80.31
2023-11-18T19:58:42.751Z,80.32
2023-11-18T20:03:45.276Z,80.65
2023-11-18T20:08:47.561Z,80.79
2023-11-18T20:13:49.714Z,80.71
2023-11-18T20:18:52.791Z,80.60
2023-11-18T20:23:54.936Z,80.44
2023-11-18T20:28:57.664Z,80.63
2023-11-18T20:34:00.432Z,80.74
2023-11-18T20:39:02.759Z,80.75
2023-11-18T20:44:05.424Z,80.88
2023-11-18T20:49:07.913Z,81.08
2023-11-18T20:54:11.749Z,80.80
2023-11-18T20:59:14.442Z,80.71
2023-11-18T21:04:18.011Z,80.62
2023-11-18T21:09:21.470Z,80.62
2023-11-18T21:14:23.722Z,80.61
2023-11-18T21:19:27.388Z,80.65
2023-11-18T21:24:29.458Z,80.63
2023-11-18T21:29:32.569Z,80.61
2023-11-18T21:34:34.638Z,80.56
2023-11-18T21:39:39.500Z,80.58
2023-11-18T21:44:41.651Z,80.53
2023-11-18T21:49:51.772Z,80.72
2023-11-18T21:54:55.192Z,80.74
2023-11-18T21:59:58.309Z,80.56
2023-11-18T22:05:00.772Z,80.67
2023-11-18T22:10:03.179Z,80.52
2023-11-18T22:15:07.637Z,80.46
2023-11-18T22:20:15.025Z,80.32
2023-11-18T22:25:17.109Z,80.26
2023-11-18T22:30:20.657Z,80.24
2023-11-18T22:35:24.481Z,80.20
2023-11-18T22:40:27.278Z,79.94
2023-11-18T22:45:29.549Z,80.21
2023-11-18T22:50:36.076Z,80.10
2023-11-18T22:55:39.150Z,80.01
2023-11-18T23:00:55.783Z,80.08
2023-11-18T23:11:12.827Z,79.52
2023-11-18T23:16:14.874Z,79.28
2023-11-18T23:21:16.814Z,79.62
2023-11-18T23:26:19.931Z,79.42
2023-11-18T23:31:24.502Z,79.28
2023-11-18T23:36:26.714Z,79.66
2023-11-18T23:41:29.443Z,79.75
2023-11-18T23:46:32.416Z,79.96
2023-11-18T23:51:34.449Z,80.05
2023-11-18T23:56:36.526Z,80.03
